Bookmark and Share
Track history (hours):
 

CMA CGM Musca

Last reported at 2014-Apr-18 08:19 UTC. Time now 2014-Apr-19 12:06 UTC.
Position N 22°29' E 113°52'.

Length 347 m; draft 13.7 m.

Type: Ship (hazmat cat A). MMSI: 235070914.

NotesDate/timePositionNaut miles runAvg speedWind from/ knotsBaromVisibWave heightAir tempDewpointWater temp
2014-Apr-18 08:19N 22°29' E 113°52'0 0.0
2014-Apr-18 06:27N 22°29' E 113°52'0 0.0
2014-Apr-18 05:32N 22°29' E 113°52'0 0.0
2014-Apr-18 04:31N 22°29' E 113°52'0 0.0
2014-Apr-18 03:34N 22°29' E 113°52'5 4.8
2014-Apr-18 02:33N 22°25' E 113°51'1313.5
2014-Apr-18 01:33N 22°11' E 113°50'1110.1
2014-Apr-18 00:30N 22°01' E 113°52'1112.2
2014-Apr-17 23:33N 21°49' E 113°51'  
2014-Apr-13 09:29N 01°12' E 103°53'9 9.4
2014-Apr-13 08:33N 01°16' E 103°45'0 0.1
2014-Apr-13 03:18N 01°17' E 103°46'0 0.0
2014-Apr-13 02:33N 01°17' E 103°46'0 0.0
2014-Apr-13 01:31N 01°17' E 103°46'0 0.0
2014-Apr-13 00:30N 01°17' E 103°46'0 0.0
2014-Apr-12 23:30N 01°17' E 103°46'0 0.0
2014-Apr-12 22:05N 01°17' E 103°46'0 0.0
2014-Apr-12 20:10N 01°17' E 103°46'0 0.0
2014-Apr-12 19:07N 01°17' E 103°46'0 0.0
2014-Apr-12 18:28N 01°17' E 103°46'2 1.9
2014-Apr-12 17:33N 01°15' E 103°47'0 0.3
2014-Apr-12 16:33N 01°15' E 103°47'3 2.9
2014-Apr-12 15:30N 01°15' E 103°44'6 6.6
2014-Apr-12 14:33N 01°12' E 103°38'5 4.5
2014-Apr-12 13:33N 01°11' E 103°34'6 5.8
2014-Apr-12 12:32N 01°10' E 103°28'  

Dump ship's entire track history

sailing weather and tide predictions

CMA CGM Musca — 2CAC8 — position and weather